createdAt,value
2018-12-08T00:02:27.462Z,16.10
2018-12-08T00:04:56.031Z,16.60
2018-12-08T00:07:24.505Z,13.80
2018-12-08T00:09:52.993Z,12.07
2018-12-08T00:12:21.467Z,17.27
2018-12-08T00:14:50.133Z,17.23
2018-12-08T00:17:18.958Z,15.13
2018-12-08T00:19:47.606Z,18.83
2018-12-08T00:22:16.180Z,16.40
2018-12-08T00:24:44.626Z,15.17
2018-12-08T00:27:13.535Z,17.02
2018-12-08T00:29:42.177Z,15.00
2018-12-08T00:32:10.647Z,12.13
2018-12-08T00:34:39.124Z,15.27
2018-12-08T00:37:07.714Z,24.37
2018-12-08T00:39:36.153Z,24.27
2018-12-08T00:42:04.613Z,15.17
2018-12-08T00:44:33.123Z,12.43
2018-12-08T00:47:01.549Z,18.03
2018-12-08T00:49:30.098Z,19.90
2018-12-08T00:51:58.619Z,10.10
2018-12-08T00:54:27.347Z,10.33
2018-12-08T00:56:55.821Z,17.40
2018-12-08T00:59:24.371Z,14.80
2018-12-08T01:01:52.863Z,16.93
2018-12-08T01:04:21.350Z,19.47
2018-12-08T01:06:50.561Z,16.47
2018-12-08T01:09:19.031Z,11.60
2018-12-08T01:11:47.609Z,18.30
2018-12-08T01:14:16.086Z,16.17
2018-12-08T01:16:44.541Z,15.37
2018-12-08T01:19:13.661Z,19.90
2018-12-08T01:21:42.121Z,13.47
2018-12-08T01:24:10.571Z,14.10
2018-12-08T01:26:39.018Z,13.90
2018-12-08T01:29:07.733Z,14.40
2018-12-08T01:31:37.270Z,11.60
2018-12-08T01:34:05.721Z,15.77
2018-12-08T01:36:34.268Z,10.37
2018-12-08T01:39:03.314Z,14.40
2018-12-08T01:41:32.440Z,16.93
2018-12-08T01:44:00.921Z,13.33
2018-12-08T01:46:29.505Z,13.40
2018-12-08T01:48:57.979Z,12.27
2018-12-08T01:51:26.474Z,18.20
2018-12-08T01:53:55.073Z,14.23
2018-12-08T01:56:23.679Z,13.30
2018-12-08T01:58:52.135Z,15.67
2018-12-08T02:01:20.726Z,12.23
2018-12-08T02:03:49.183Z,14.80
2018-12-08T02:06:17.606Z,13.17
2018-12-08T02:08:46.059Z,24.63
2018-12-08T02:11:14.540Z,9.17
2018-12-08T02:13:43.240Z,12.30
2018-12-08T02:16:11.734Z,16.07
2018-12-08T02:18:40.172Z,15.37
2018-12-08T02:21:08.750Z,23.53
2018-12-08T02:23:37.751Z,12.00
2018-12-08T02:26:06.225Z,14.50
2018-12-08T02:28:34.816Z,16.30
2018-12-08T02:31:03.382Z,13.17
2018-12-08T02:33:31.842Z,14.27
2018-12-08T02:36:00.424Z,13.87
2018-12-08T02:38:28.996Z,13.87
2018-12-08T02:40:57.452Z,15.73
2018-12-08T02:43:25.880Z,18.73
2018-12-08T02:45:54.353Z,9.97
2018-12-08T02:48:22.804Z,13.53
2018-12-08T02:50:51.304Z,11.63
2018-12-08T02:53:20.862Z,18.33
2018-12-08T02:55:49.334Z,18.67
2018-12-08T02:58:17.801Z,15.67
2018-12-08T03:00:46.318Z,13.00
2018-12-08T03:03:14.765Z,16.03
2018-12-08T03:05:43.256Z,12.80
2018-12-08T03:08:11.824Z,10.00
2018-12-08T03:10:40.285Z,16.37
2018-12-08T03:13:08.920Z,13.20
2018-12-08T03:15:37.426Z,14.87
2018-12-08T03:18:06.008Z,19.50
2018-12-08T03:20:34.584Z,10.80
2018-12-08T03:23:03.008Z,18.37
2018-12-08T03:25:31.477Z,6.83
2018-12-08T03:27:59.994Z,15.33
2018-12-08T03:30:28.436Z,17.07
2018-12-08T03:32:57.008Z,13.67
2018-12-08T03:35:25.487Z,14.47
2018-12-08T03:37:54.056Z,16.87
2018-12-08T03:40:22.557Z,16.03
2018-12-08T03:42:50.982Z,16.00
2018-12-08T03:45:19.602Z,19.37
2018-12-08T03:47:48.036Z,12.87
2018-12-08T03:50:16.545Z,13.00
2018-12-08T03:52:44.978Z,11.57
2018-12-08T03:55:14.861Z,12.50
2018-12-08T03:57:43.343Z,10.80
2018-12-08T04:00:12.031Z,10.00
2018-12-08T04:02:40.675Z,16.60
2018-12-08T04:05:09.278Z,20.20
2018-12-08T04:07:38.348Z,16.97
2018-12-08T04:10:07.088Z,13.63
2018-12-08T04:12:35.557Z,14.63
2018-12-08T04:15:04.495Z,11.23
2018-12-08T04:17:33.081Z,14.70
2018-12-08T04:20:01.591Z,15.97
2018-12-08T04:22:30.135Z,11.57
2018-12-08T04:24:58.573Z,9.20
2018-12-08T04:27:27.144Z,15.10
2018-12-08T04:29:55.618Z,13.03
2018-12-08T04:32:24.207Z,12.83
2018-12-08T04:34:52.698Z,14.07
2018-12-08T04:37:21.121Z,12.20
2018-12-08T04:39:49.660Z,13.57
2018-12-08T04:42:18.130Z,11.07
2018-12-08T04:44:46.551Z,10.70
2018-12-08T04:47:15.139Z,11.27
2018-12-08T04:49:43.560Z,12.73
2018-12-08T04:52:11.972Z,13.10
2018-12-08T04:54:40.419Z,10.93
2018-12-08T04:57:09.833Z,14.80
2018-12-08T04:59:38.778Z,10.50
2018-12-08T05:02:07.225Z,15.00
2018-12-08T05:04:35.808Z,10.00
2018-12-08T05:07:04.482Z,14.10
2018-12-08T05:09:32.991Z,13.07
2018-12-08T05:12:01.492Z,17.43
2018-12-08T05:14:29.941Z,9.10
2018-12-08T05:16:58.395Z,11.77
2018-12-08T05:19:26.943Z,12.60
2018-12-08T05:21:55.421Z,13.60
2018-12-08T05:24:23.832Z,10.33
2018-12-08T05:26:52.295Z,11.10
2018-12-08T05:29:20.724Z,10.50
2018-12-08T05:31:49.270Z,18.70
2018-12-08T05:34:17.861Z,15.73
2018-12-08T05:36:46.417Z,13.93
2018-12-08T05:39:14.974Z,15.43
2018-12-08T05:41:43.409Z,11.80
2018-12-08T05:44:11.873Z,10.73
2018-12-08T05:46:40.398Z,9.47
2018-12-08T05:49:08.833Z,17.40
2018-12-08T05:51:37.301Z,15.57
2018-12-08T05:54:05.852Z,12.93
2018-12-08T05:56:34.492Z,10.13
2018-12-08T05:59:02.980Z,10.73
2018-12-08T06:01:32.267Z,11.10
2018-12-08T06:04:00.766Z,11.67
2018-12-08T06:06:29.201Z,16.13
2018-12-08T06:08:57.641Z,12.47
2018-12-08T06:11:26.111Z,13.33
2018-12-08T06:13:54.549Z,15.83
2018-12-08T06:16:23.100Z,13.17
2018-12-08T06:18:51.563Z,13.33
2018-12-08T06:21:27.899Z,10.40
2018-12-08T06:23:56.373Z,14.30
2018-12-08T06:26:24.820Z,13.97
2018-12-08T06:28:54.954Z,11.17
2018-12-08T06:31:23.459Z,11.13
2018-12-08T06:33:51.937Z,11.57
2018-12-08T06:36:20.517Z,13.53
2018-12-08T06:38:48.964Z,10.83
2018-12-08T06:41:17.447Z,13.00
2018-12-08T06:43:45.866Z,14.70
2018-12-08T06:46:14.349Z,13.40
2018-12-08T06:48:42.906Z,10.80
2018-12-08T06:51:11.359Z,16.00
2018-12-08T06:53:39.939Z,17.37
2018-12-08T06:56:08.387Z,15.37
2018-12-08T06:58:36.819Z,13.93
2018-12-08T07:01:05.376Z,15.50
2018-12-08T07:03:33.974Z,14.97
2018-12-08T07:06:02.434Z,12.27
2018-12-08T07:08:30.913Z,11.57
2018-12-08T07:10:59.364Z,13.73
2018-12-08T07:13:27.903Z,13.30
2018-12-08T07:15:56.380Z,16.13
2018-12-08T07:18:26.269Z,15.03
2018-12-08T07:20:55.000Z,12.63
2018-12-08T07:23:23.578Z,13.10
2018-12-08T07:25:52.020Z,13.93
2018-12-08T07:28:21.367Z,12.20
2018-12-08T07:30:49.963Z,9.77
2018-12-08T07:33:18.420Z,9.53
2018-12-08T07:35:46.890Z,9.03
2018-12-08T07:38:16.060Z,10.47
2018-12-08T07:40:45.198Z,17.43
2018-12-08T07:43:13.682Z,16.63
2018-12-08T07:45:42.196Z,14.13
2018-12-08T07:48:10.696Z,10.47
2018-12-08T07:50:39.144Z,18.10
2018-12-08T07:53:08.230Z,15.77
2018-12-08T07:55:36.703Z,13.03
2018-12-08T07:58:05.239Z,9.63
2018-12-08T08:00:33.702Z,10.17
2018-12-08T08:03:02.180Z,10.53
2018-12-08T08:05:30.709Z,10.33
2018-12-08T08:07:59.269Z,8.90
2018-12-08T08:10:27.718Z,11.57
2018-12-08T08:12:56.203Z,10.67
2018-12-08T08:15:24.740Z,9.13
2018-12-08T08:17:53.224Z,9.20
2018-12-08T08:20:21.699Z,9.23
2018-12-08T08:22:50.658Z,7.03
2018-12-08T08:25:19.111Z,12.10
2018-12-08T08:27:47.567Z,14.07
2018-12-08T08:30:16.136Z,9.30
2018-12-08T08:32:44.571Z,9.63
2018-12-08T08:35:13.043Z,6.17
2018-12-08T08:37:41.708Z,7.53
2018-12-08T08:40:11.306Z,9.53
2018-12-08T08:42:39.741Z,10.57
2018-12-08T08:45:08.719Z,8.13
2018-12-08T08:47:37.258Z,6.80
2018-12-08T08:50:08.512Z,9.47
2018-12-08T08:52:37.191Z,10.07
2018-12-08T08:55:06.711Z,15.10
2018-12-08T08:57:35.322Z,11.17
2018-12-08T09:00:05.081Z,6.70
2018-12-08T09:02:33.540Z,9.00
2018-12-08T09:05:02.057Z,14.87
2018-12-08T09:07:30.546Z,9.10
2018-12-08T09:09:59.058Z,11.37
2018-12-08T09:12:27.495Z,5.90
2018-12-08T09:14:55.928Z,8.60
2018-12-08T09:17:24.407Z,9.57
2018-12-08T09:19:52.843Z,9.03
2018-12-08T09:22:21.370Z,5.77
2018-12-08T09:24:49.814Z,6.43
2018-12-08T09:27:18.377Z,4.70
2018-12-08T09:29:47.407Z,6.83
2018-12-08T09:32:15.903Z,7.97
2018-12-08T09:34:45.420Z,6.93
2018-12-08T09:37:13.918Z,10.30
2018-12-08T09:39:42.622Z,9.30
2018-12-08T09:42:11.264Z,6.17
2018-12-08T09:44:39.817Z,13.40
2018-12-08T09:47:08.263Z,5.40
2018-12-08T09:49:36.720Z,7.30
2018-12-08T09:52:05.170Z,9.43
2018-12-08T09:54:33.682Z,6.67
2018-12-08T09:57:02.443Z,8.57
2018-12-08T09:59:31.006Z,10.50
2018-12-08T10:01:59.584Z,7.33
2018-12-08T10:04:28.332Z,9.73
2018-12-08T10:06:56.778Z,6.30
2018-12-08T10:09:25.310Z,6.80
2018-12-08T10:11:53.784Z,3.47
2018-12-08T10:14:22.368Z,6.93
2018-12-08T10:16:50.842Z,8.70
2018-12-08T10:19:19.413Z,7.63
2018-12-08T10:21:47.901Z,5.23
2018-12-08T10:24:16.464Z,3.37
2018-12-08T10:26:44.944Z,9.30
2018-12-08T10:29:13.404Z,5.13
2018-12-08T10:31:41.952Z,3.90
2018-12-08T10:34:10.389Z,6.37
2018-12-08T10:36:39.058Z,10.53
2018-12-08T10:39:08.824Z,8.47
2018-12-08T10:41:37.300Z,7.80
2018-12-08T10:44:05.914Z,6.67
2018-12-08T10:46:34.492Z,6.80
2018-12-08T10:49:02.979Z,11.20
2018-12-08T10:51:31.461Z,5.53
2018-12-08T10:53:59.881Z,5.20
2018-12-08T10:56:28.328Z,6.07
2018-12-08T10:58:56.843Z,7.27
2018-12-08T11:01:29.518Z,4.37
2018-12-08T11:03:58.202Z,4.50
2018-12-08T11:06:26.661Z,4.67
2018-12-08T11:08:55.248Z,6.50
2018-12-08T11:11:23.824Z,3.87
2018-12-08T11:13:52.283Z,4.77
2018-12-08T11:16:21.846Z,6.73
2018-12-08T11:18:50.284Z,5.17
2018-12-08T11:21:19.451Z,5.17
2018-12-08T11:23:47.903Z,5.47
2018-12-08T11:26:16.385Z,6.10
2018-12-08T11:28:44.915Z,4.23
2018-12-08T11:31:13.415Z,3.07
2018-12-08T11:33:42.172Z,6.90
2018-12-08T11:36:10.708Z,4.27
2018-12-08T11:38:39.244Z,6.53
2018-12-08T11:41:07.807Z,5.13
2018-12-08T11:43:36.263Z,5.37
2018-12-08T11:46:04.754Z,3.10
2018-12-08T11:48:33.318Z,5.33
2018-12-08T11:51:02.064Z,3.43
2018-12-08T11:53:30.522Z,3.90
2018-12-08T11:55:58.970Z,4.10
2018-12-08T11:58:27.547Z,5.33
2018-12-08T12:00:56.071Z,2.33
2018-12-08T12:03:24.527Z,3.00
2018-12-08T12:05:53.064Z,6.33
2018-12-08T12:08:21.563Z,2.77
2018-12-08T12:10:50.154Z,2.87
2018-12-08T12:13:18.861Z,8.70
2018-12-08T12:15:47.462Z,10.30
2018-12-08T12:18:16.012Z,7.60
2018-12-08T12:20:44.576Z,3.27
2018-12-08T12:23:13.034Z,2.80
2018-12-08T12:25:41.457Z,2.60
2018-12-08T12:28:11.153Z,5.30
2018-12-08T12:30:40.002Z,3.77
2018-12-08T12:33:08.542Z,4.23
2018-12-08T12:35:37.014Z,2.27
2018-12-08T12:38:05.451Z,2.47
2018-12-08T12:40:33.919Z,2.23
2018-12-08T12:43:02.361Z,3.73
2018-12-08T12:45:31.408Z,7.93
2018-12-08T12:47:59.844Z,4.63
2018-12-08T12:50:28.503Z,3.40
2018-12-08T12:52:57.062Z,2.63
2018-12-08T12:55:25.536Z,2.87
2018-12-08T12:57:53.967Z,1.90
2018-12-08T13:00:22.501Z,3.77
2018-12-08T13:02:50.990Z,2.23
2018-12-08T13:05:19.408Z,2.10
2018-12-08T13:07:47.892Z,3.20
2018-12-08T13:10:16.572Z,2.27
2018-12-08T13:12:45.010Z,1.87
2018-12-08T13:15:13.758Z,2.23
2018-12-08T13:17:42.314Z,4.27
2018-12-08T13:20:11.261Z,2.37
2018-12-08T13:22:40.439Z,1.77
2018-12-08T13:25:24.610Z,2.70
2018-12-08T13:27:53.110Z,1.83
2018-12-08T13:30:21.620Z,1.90
2018-12-08T13:32:50.690Z,4.63
2018-12-08T13:35:59.145Z,2.57
2018-12-08T13:38:27.806Z,1.47
2018-12-08T13:40:56.385Z,1.97
2018-12-08T13:43:31.245Z,1.80
2018-12-08T13:45:59.811Z,2.10
2018-12-08T13:48:29.406Z,2.73
2018-12-08T13:50:58.279Z,6.37
2018-12-08T13:53:26.736Z,5.10
2018-12-08T13:55:55.196Z,2.20
2018-12-08T13:58:23.605Z,3.07
2018-12-08T14:00:52.118Z,2.47
2018-12-08T14:03:20.613Z,2.57
2018-12-08T14:05:49.090Z,6.47
2018-12-08T14:08:17.559Z,4.27
2018-12-08T14:10:46.500Z,9.07
2018-12-08T14:13:15.020Z,4.70
2018-12-08T14:15:43.476Z,5.20
2018-12-08T14:18:11.964Z,8.00
2018-12-08T14:20:40.401Z,5.70
2018-12-08T14:23:08.974Z,8.37
2018-12-08T14:25:37.489Z,9.33
2018-12-08T14:28:06.287Z,8.53
2018-12-08T14:30:34.994Z,13.93
2018-12-08T14:33:03.469Z,10.17
2018-12-08T14:35:32.045Z,8.17
2018-12-08T14:38:01.181Z,5.50
2018-12-08T14:40:29.602Z,7.60
2018-12-08T14:42:58.102Z,7.43
2018-12-08T14:45:26.597Z,11.00
2018-12-08T14:47:55.240Z,9.07
2018-12-08T14:50:23.898Z,10.97
2018-12-08T14:52:52.350Z,9.33
2018-12-08T14:55:20.812Z,10.73
2018-12-08T14:57:49.249Z,10.83
2018-12-08T15:00:18.446Z,8.20
2018-12-08T15:02:47.020Z,9.13
2018-12-08T15:05:15.614Z,7.33
2018-12-08T15:07:44.227Z,7.60
2018-12-08T15:10:13.407Z,9.20
2018-12-08T15:12:41.972Z,8.70
2018-12-08T15:15:11.135Z,12.60
2018-12-08T15:17:39.630Z,15.30
2018-12-08T15:20:09.435Z,6.80
2018-12-08T15:22:38.058Z,12.90
2018-12-08T15:25:08.716Z,17.97
2018-12-08T15:27:37.356Z,8.47
2018-12-08T15:30:07.814Z,7.87
2018-12-08T15:32:36.289Z,13.03
2018-12-08T15:35:06.393Z,14.60
2018-12-08T15:37:34.844Z,14.00
2018-12-08T15:40:03.605Z,14.33
2018-12-08T15:42:32.174Z,14.63
2018-12-08T15:45:00.786Z,12.23
2018-12-08T15:47:30.233Z,14.37
2018-12-08T15:49:58.707Z,17.27
2018-12-08T15:52:27.140Z,15.63
2018-12-08T15:54:55.625Z,11.27
2018-12-08T15:57:24.085Z,10.07
2018-12-08T15:59:52.716Z,11.43
2018-12-08T16:02:21.190Z,10.97
2018-12-08T16:04:49.690Z,13.30
2018-12-08T16:07:18.171Z,8.43
2018-12-08T16:09:47.111Z,11.80
2018-12-08T16:12:15.645Z,13.80
2018-12-08T16:14:44.819Z,13.03
2018-12-08T16:17:13.629Z,10.10
2018-12-08T16:19:42.073Z,12.77
2018-12-08T16:22:10.628Z,14.43
2018-12-08T16:24:39.152Z,17.50
2018-12-08T16:27:07.690Z,14.57
2018-12-08T16:29:37.762Z,15.07
2018-12-08T16:32:06.287Z,17.37
2018-12-08T16:34:35.111Z,12.43
2018-12-08T16:37:03.788Z,15.63
2018-12-08T16:39:32.261Z,14.43
2018-12-08T16:42:00.828Z,9.80
2018-12-08T16:44:29.320Z,15.30
2018-12-08T16:46:57.897Z,14.60
2018-12-08T16:49:26.402Z,12.83
2018-12-08T16:51:54.926Z,15.23
2018-12-08T16:54:23.476Z,11.90
2018-12-08T16:56:51.958Z,9.87
2018-12-08T16:59:21.105Z,11.00
2018-12-08T17:01:52.959Z,17.80
2018-12-08T17:04:22.444Z,10.93
2018-12-08T17:06:51.169Z,15.03
2018-12-08T17:09:20.332Z,10.70
2018-12-08T17:11:48.837Z,9.43
2018-12-08T17:14:17.305Z,6.67
2018-12-08T17:16:46.276Z,9.53
2018-12-08T17:19:14.749Z,12.67
2018-12-08T17:21:43.219Z,27.43
2018-12-08T17:24:12.343Z,12.03
2018-12-08T17:26:41.672Z,23.57
2018-12-08T17:29:10.829Z,20.63
2018-12-08T17:31:39.265Z,14.37
2018-12-08T17:34:07.949Z,15.23
2018-12-08T17:36:36.414Z,14.13
2018-12-08T17:39:07.196Z,14.83
2018-12-08T17:41:35.741Z,15.70
2018-12-08T17:44:04.307Z,15.63
2018-12-08T17:46:32.987Z,16.37
2018-12-08T17:49:01.497Z,15.53
2018-12-08T17:51:29.949Z,13.47
2018-12-08T17:54:00.449Z,14.17
2018-12-08T17:56:29.000Z,12.97
2018-12-08T17:58:57.532Z,8.77
2018-12-08T18:01:26.111Z,10.53
2018-12-08T18:03:54.834Z,12.17
2018-12-08T18:06:23.775Z,14.63
2018-12-08T18:08:52.566Z,15.00
2018-12-08T18:11:21.889Z,10.27
2018-12-08T18:13:50.391Z,10.80
2018-12-08T18:16:18.859Z,17.27
2018-12-08T18:18:47.889Z,13.60
2018-12-08T18:21:16.912Z,15.23
2018-12-08T18:23:45.571Z,13.43
2018-12-08T18:26:14.320Z,14.23
2018-12-08T18:28:42.836Z,8.43
2018-12-08T18:31:11.295Z,7.37
2018-12-08T18:33:39.872Z,9.77
2018-12-08T18:36:08.396Z,13.60
2018-12-08T18:38:36.988Z,10.27
2018-12-08T18:41:05.531Z,12.60
2018-12-08T18:43:34.221Z,7.97
2018-12-08T18:46:02.717Z,10.60
2018-12-08T18:48:31.207Z,13.80
2018-12-08T18:51:00.108Z,16.03
2018-12-08T18:53:28.593Z,11.17
2018-12-08T18:55:57.058Z,7.93
2018-12-08T18:58:25.744Z,12.70
2018-12-08T19:00:54.436Z,13.47
2018-12-08T19:03:23.048Z,11.87
2018-12-08T19:05:51.609Z,14.27
2018-12-08T19:08:20.085Z,13.70
2018-12-08T19:10:48.547Z,15.33
2018-12-08T19:13:17.126Z,15.07
2018-12-08T19:15:45.635Z,17.07
2018-12-08T19:18:14.281Z,17.17
2018-12-08T19:20:42.804Z,20.93
2018-12-08T19:23:11.311Z,18.27
2018-12-08T19:25:40.522Z,14.03
2018-12-08T19:28:09.711Z,16.33
2018-12-08T19:30:38.222Z,12.97
2018-12-08T19:33:14.353Z,17.63
2018-12-08T19:35:37.523Z,18.93
2018-12-08T19:38:06.064Z,9.17
2018-12-08T19:40:34.524Z,16.87
2018-12-08T19:43:03.501Z,9.53
2018-12-08T19:45:32.624Z,13.40
2018-12-08T19:48:01.400Z,10.57
2018-12-08T19:50:29.966Z,15.13
2018-12-08T19:52:58.482Z,15.53
2018-12-08T19:55:27.120Z,14.60
2018-12-08T19:57:55.725Z,12.07
2018-12-08T20:00:24.399Z,13.40
2018-12-08T20:02:52.911Z,13.37
2018-12-08T20:05:21.702Z,42.87
2018-12-08T20:07:50.398Z,20.13
2018-12-08T20:10:18.867Z,27.23
2018-12-08T20:12:47.578Z,29.27
2018-12-08T20:15:16.181Z,23.47
2018-12-08T20:17:44.934Z,32.87
2018-12-08T20:20:13.580Z,21.97
2018-12-08T20:22:42.146Z,16.57
2018-12-08T20:25:11.444Z,24.10
2018-12-08T20:27:39.960Z,18.67
2018-12-08T20:30:09.388Z,26.30
2018-12-08T20:32:38.456Z,15.80
2018-12-08T20:35:07.368Z,10.30
2018-12-08T20:37:35.943Z,14.40
2018-12-08T20:40:04.679Z,17.47
2018-12-08T20:42:33.249Z,14.87
2018-12-08T20:45:01.749Z,18.53
2018-12-08T20:47:30.340Z,22.80
2018-12-08T20:49:58.838Z,15.63
2018-12-08T20:52:27.271Z,17.67
2018-12-08T20:54:55.761Z,15.27
2018-12-08T20:57:24.322Z,17.10
2018-12-08T20:59:53.057Z,18.63
2018-12-08T21:02:21.725Z,17.23
2018-12-08T21:04:50.259Z,18.77
2018-12-08T21:07:18.771Z,11.73
2018-12-08T21:12:23.190Z,18.47
2018-12-08T21:14:51.796Z,16.77
2018-12-08T21:17:20.430Z,17.77
2018-12-08T21:19:49.064Z,12.83
2018-12-08T21:22:17.650Z,11.83
2018-12-08T21:24:46.147Z,14.27
2018-12-08T21:27:14.581Z,15.20
2018-12-08T21:29:43.220Z,13.97
2018-12-08T21:32:11.762Z,17.93
2018-12-08T21:34:41.111Z,11.47
2018-12-08T21:37:09.659Z,11.83
2018-12-08T21:39:38.305Z,7.67
2018-12-08T21:42:06.951Z,10.27
2018-12-08T21:44:35.429Z,34.47
2018-12-08T21:47:04.102Z,24.97
2018-12-08T21:49:32.704Z,14.73
2018-12-08T21:52:01.793Z,13.00
2018-12-08T21:54:30.233Z,10.40
2018-12-08T21:56:59.189Z,14.87
2018-12-08T21:59:27.751Z,19.57
2018-12-08T22:01:56.438Z,15.80
2018-12-08T22:04:25.071Z,15.70
2018-12-08T22:06:53.516Z,13.23
2018-12-08T22:09:22.205Z,13.47
2018-12-08T22:11:50.769Z,16.83
2018-12-08T22:14:19.369Z,23.43
2018-12-08T22:16:48.123Z,8.73
2018-12-08T22:19:17.281Z,11.67
2018-12-08T22:21:45.740Z,15.00
2018-12-08T22:24:14.460Z,10.00
2018-12-08T22:26:43.162Z,9.93
2018-12-08T22:29:11.666Z,8.63
2018-12-08T22:31:40.280Z,15.07
2018-12-08T22:34:08.832Z,11.27
2018-12-08T22:36:37.310Z,12.00
2018-12-08T22:39:07.650Z,11.37
2018-12-08T22:41:36.211Z,12.87
2018-12-08T22:44:04.741Z,15.43
2018-12-08T22:46:33.371Z,13.00
2018-12-08T22:49:02.002Z,12.17
2018-12-08T22:51:30.510Z,10.20
2018-12-08T22:53:59.019Z,11.80
2018-12-08T22:56:27.477Z,8.00
2018-12-08T22:58:56.030Z,5.33
2018-12-08T23:01:24.737Z,6.37
2018-12-08T23:03:53.682Z,7.40
2018-12-08T23:06:22.366Z,6.53
2018-12-08T23:08:51.062Z,6.43
2018-12-08T23:11:19.508Z,2.17
2018-12-08T23:13:48.085Z,5.47
2018-12-08T23:16:16.537Z,3.33
2018-12-08T23:18:45.057Z,3.43
2018-12-08T23:21:13.542Z,2.77
2018-12-08T23:23:42.208Z,1.73
2018-12-08T23:26:10.842Z,5.77
2018-12-08T23:28:39.983Z,3.80
2018-12-08T23:31:08.589Z,4.53
2018-12-08T23:33:37.121Z,5.17
2018-12-08T23:36:05.828Z,4.43
2018-12-08T23:38:34.427Z,4.00
2018-12-08T23:41:02.961Z,2.77
2018-12-08T23:43:31.464Z,1.57
2018-12-08T23:45:59.977Z,2.67
2018-12-08T23:48:28.492Z,3.87
2018-12-08T23:50:57.230Z,3.37
2018-12-08T23:53:25.721Z,3.03
2018-12-08T23:55:54.290Z,1.63
2018-12-08T23:58:22.789Z,1.57
